Time;durP1;ratioP1;P1;durP2;ratioP2;P2;SDS_P1;SDS_P2;PMS_P1;PMS_P2;Temp;Humidity;BMP_temperature;BMP_pressure;BME280_temperature;BME280_humidity;BME280_pressure;Samples;Min_cycle;Max_cycle;Signal;HPM_P1;HPM_P2
2022/07/11 00:00:11;;;;;;;11.10;5.20;;;;;;;14.20;100.00;102419.81;5248985;28;20052;-69
2022/07/11 00:02:42;;;;;;;9.13;4.68;;;;;;;14.15;100.00;102419.44;5244760;28;20103;-69
2022/07/11 00:05:13;;;;;;;10.35;5.13;;;;;;;14.13;100.00;102420.59;5267179;28;20169;-69
2022/07/11 00:07:43;;;;;;;8.18;5.10;;;;;;;14.12;100.00;102422.47;5269236;28;20032;-69
2022/07/11 00:10:14;;;;;;;8.32;4.75;;;;;;;14.10;100.00;102421.75;5269942;28;20374;-69
2022/07/11 00:12:44;;;;;;;8.90;4.82;;;;;;;14.07;100.00;102422.06;5247574;28;20023;-69
2022/07/11 00:15:14;;;;;;;12.25;5.30;;;;;;;14.03;100.00;102414.41;5248273;28;20024;-69
2022/07/11 00:17:45;;;;;;;8.10;4.22;;;;;;;13.96;100.00;102415.03;5256513;28;20053;-69
2022/07/11 00:20:15;;;;;;;7.78;4.00;;;;;;;13.88;100.00;102414.06;5255140;28;20028;-70
2022/07/11 00:22:46;;;;;;;7.70;4.38;;;;;;;13.79;100.00;102409.56;5257302;28;20096;-69
2022/07/11 00:25:16;;;;;;;5.75;4.20;;;;;;;13.69;100.00;102407.75;5261800;28;20123;-69
2022/07/11 00:27:47;;;;;;;8.95;4.28;;;;;;;13.63;100.00;102412.91;5258457;28;20028;-69
2022/07/11 00:30:18;;;;;;;8.10;4.90;;;;;;;13.58;100.00;102416.03;5255406;28;20557;-69
2022/07/11 00:32:48;;;;;;;8.65;5.22;;;;;;;13.51;100.00;102408.69;5257441;28;20401;-69
2022/07/11 00:35:19;;;;;;;8.05;4.50;;;;;;;13.45;100.00;102410.13;5253020;28;20024;-70
2022/07/11 00:37:49;;;;;;;10.43;4.78;;;;;;;13.41;100.00;102411.44;5256384;28;20111;-69
2022/07/11 00:40:20;;;;;;;14.68;5.22;;;;;;;13.40;100.00;102417.78;5254519;28;20028;-69
2022/07/11 00:42:50;;;;;;;9.52;5.30;;;;;;;13.39;100.00;102410.72;5269155;28;20080;-69
2022/07/11 00:45:21;;;;;;;8.73;5.35;;;;;;;13.37;100.00;102405.47;5254987;28;20107;-69
2022/07/11 00:47:51;;;;;;;9.20;5.00;;;;;;;13.37;100.00;102396.53;5253720;28;20020;-69
2022/07/11 00:50:22;;;;;;;7.10;4.13;;;;;;;13.37;100.00;102397.38;5248252;28;20028;-69
2022/07/11 00:52:55;;;;;;;5.50;4.00;;;;;;;13.37;100.00;102400.09;5247474;28;20029;-69
2022/07/11 00:55:28;;;;;;;6.13;4.38;;;;;;;13.36;100.00;102386.75;5247798;28;20026;-69
2022/07/11 00:57:59;;;;;;;10.73;4.60;;;;;;;13.34;100.00;102402.22;5266089;28;20387;-69
2022/07/11 01:00:29;;;;;;;8.00;5.03;;;;;;;13.33;100.00;102387.03;5268818;28;20020;-69
2022/07/11 01:03:00;;;;;;;9.60;5.05;;;;;;;13.32;100.00;102388.03;5243480;28;20363;-69
2022/07/11 01:05:31;;;;;;;9.43;5.45;;;;;;;13.31;100.00;102389.06;5239976;28;20024;-69
2022/07/11 01:08:01;;;;;;;7.53;4.90;;;;;;;13.32;100.00;102385.34;5268174;28;20266;-69
2022/07/11 01:10:32;;;;;;;9.13;4.53;;;;;;;13.33;100.00;102387.03;5254815;28;20023;-69
2022/07/11 01:13:03;;;;;;;11.77;5.30;;;;;;;13.35;100.00;102388.56;5268116;28;20035;-69
2022/07/11 01:15:35;;;;;;;11.15;5.70;;;;;;;13.35;100.00;102385.88;5253349;28;20023;-69
2022/07/11 01:18:06;;;;;;;12.48;5.70;;;;;;;13.36;100.00;102386.75;5268282;28;20427;-69
2022/07/11 01:20:36;;;;;;;10.57;6.30;;;;;;;13.35;100.00;102390.44;5254247;28;20024;-69
2022/07/11 01:23:07;;;;;;;12.63;5.72;;;;;;;13.32;100.00;102388.03;5265059;28;20085;-69
2022/07/11 01:25:37;;;;;;;11.35;6.07;;;;;;;13.26;100.00;102389.50;5248656;28;20425;-69
2022/07/11 01:28:08;;;;;;;5.95;4.55;;;;;;;13.19;100.00;102391.84;5247048;28;20040;-69
2022/07/11 01:30:38;;;;;;;9.13;5.15;;;;;;;13.13;100.00;102387.06;5253828;28;20024;-69
2022/07/11 01:33:09;;;;;;;8.77;5.45;;;;;;;13.09;100.00;102385.66;5253684;28;20055;-70
2022/07/11 01:35:39;;;;;;;11.07;5.80;;;;;;;13.07;100.00;102393.03;5259845;28;20020;-69
2022/07/11 01:38:10;;;;;;;15.52;7.30;;;;;;;13.06;100.00;102395.88;5247340;28;20027;-69
2022/07/11 01:40:41;;;;;;;15.30;6.20;;;;;;;13.06;100.00;102390.50;5267796;28;20024;-68
2022/07/11 01:43:12;;;;;;;12.43;6.35;;;;;;;13.06;100.00;102388.66;5252716;28;20039;-69
2022/07/11 01:45:42;;;;;;;8.48;5.78;;;;;;;13.09;100.00;102398.28;5267264;28;20071;-69
2022/07/11 01:48:13;;;;;;;10.25;6.32;;;;;;;13.11;100.00;102388.22;5251259;28;20120;-68
2022/07/11 01:50:54;;;;;;;13.57;7.07;;;;;;;13.13;100.00;102395.16;5259615;28;20024;-69
2022/07/11 01:53:24;;;;;;;13.45;8.07;;;;;;;13.15;100.00;102382.41;5260817;28;20024;-68
2022/07/11 01:55:55;;;;;;;14.48;8.10;;;;;;;13.18;100.00;102384.78;5245921;28;20027;-67
2022/07/11 01:58:25;;;;;;;13.48;7.18;;;;;;;13.19;100.00;102380.25;5246276;28;20017;-68
2022/07/11 02:00:58;;;;;;;11.32;6.85;;;;;;;13.16;100.00;102386.78;5259842;28;20024;-69
2022/07/11 02:03:33;;;;;;;11.98;7.15;;;;;;;13.11;100.00;102375.59;5235126;28;20021;-69
2022/07/11 02:06:05;;;;;;;14.05;8.13;;;;;;;13.09;100.00;102379.41;5258120;28;20078;-69
2022/07/11 02:08:36;;;;;;;14.32;7.35;;;;;;;13.05;100.00;102378.00;5258856;28;20438;-69
2022/07/11 02:11:07;;;;;;;19.60;8.25;;;;;;;13.00;100.00;102378.44;5267261;28;20478;-69
2022/07/11 02:13:38;;;;;;;17.88;9.57;;;;;;;12.99;100.00;102376.75;5266237;28;20077;-69
2022/07/11 02:16:08;;;;;;;14.88;7.72;;;;;;;12.99;100.00;102379.44;5253825;28;20441;-69
2022/07/11 02:18:39;;;;;;;11.65;6.45;;;;;;;12.96;100.00;102375.19;5266989;28;20024;-69
2022/07/11 02:21:12;;;;;;;12.05;6.28;;;;;;;12.94;100.00;102373.63;5250022;28;20051;-69
2022/07/11 02:23:42;;;;;;;14.20;7.00;;;;;;;12.93;100.00;102374.63;5262706;28;20531;-69
2022/07/11 02:26:13;;;;;;;14.02;7.32;;;;;;;12.91;100.00;102371.25;5255892;28;20024;-69
2022/07/11 02:28:44;;;;;;;15.15;7.25;;;;;;;12.88;100.00;102369.66;5245729;28;20044;-69
2022/07/11 02:31:15;;;;;;;10.63;7.20;;;;;;;12.87;100.00;102367.13;5246368;28;20024;-69
2022/07/11 02:33:45;;;;;;;9.93;6.18;;;;;;;12.85;100.00;102372.69;5237528;28;20697;-69
2022/07/11 02:36:16;;;;;;;23.40;9.73;;;;;;;12.85;100.00;102369.97;5253350;28;20035;-69
2022/07/11 02:38:46;;;;;;;16.45;9.65;;;;;;;12.86;100.00;102373.53;5245690;28;20090;-69
2022/07/11 02:41:18;;;;;;;24.15;10.32;;;;;;;12.88;100.00;102374.22;5259414;28;20107;-69
2022/07/11 02:43:48;;;;;;;24.02;13.13;;;;;;;12.92;100.00;102378.31;5253891;28;20028;-69
2022/07/11 02:46:19;;;;;;;24.88;12.82;;;;;;;12.96;100.00;102385.13;5250292;28;20501;-69
2022/07/11 02:48:49;;;;;;;27.60;12.77;;;;;;;13.00;100.00;102383.81;5245724;28;20108;-69
2022/07/11 02:51:20;;;;;;;26.70;13.68;;;;;;;13.03;100.00;102372.75;5259259;28;20070;-69
2022/07/11 02:53:50;;;;;;;32.42;15.70;;;;;;;13.05;100.00;102376.19;5245517;28;20028;-70
2022/07/11 02:56:21;;;;;;;33.05;15.90;;;;;;;13.08;100.00;102378.56;5244796;28;20107;-70
2022/07/11 02:58:52;;;;;;;32.92;17.25;;;;;;;13.09;100.00;102380.25;5245650;28;20020;-69
2022/07/11 03:01:22;;;;;;;34.25;17.67;;;;;;;13.12;100.00;102389.91;5259077;28;20021;-69
2022/07/11 03:03:53;;;;;;;36.35;17.23;;;;;;;13.12;100.00;102385.38;5232481;28;20028;-69
2022/07/11 03:06:23;;;;;;;35.60;18.38;;;;;;;13.18;100.00;102387.47;5266224;28;20107;-69
2022/07/11 03:08:53;;;;;;;43.40;21.08;;;;;;;13.21;100.00;102387.22;5265877;28;20026;-69
2022/07/11 03:11:24;;;;;;;38.35;19.40;;;;;;;13.24;100.00;102385.22;5256773;28;20078;-69
2022/07/11 03:13:55;;;;;;;42.67;19.13;;;;;;;13.26;100.00;102383.25;5261934;28;20051;-69
2022/07/11 03:16:25;;;;;;;45.30;20.67;;;;;;;13.28;100.00;102386.63;5255344;28;20035;-69
2022/07/11 03:18:57;;;;;;;47.92;21.27;;;;;;;13.31;100.00;102389.91;5245097;28;20021;-69
2022/07/11 03:21:27;;;;;;;44.53;23.30;;;;;;;13.35;100.00;102388.56;5244751;28;20017;-69
2022/07/11 03:23:58;;;;;;;38.20;20.67;;;;;;;13.38;100.00;102391.00;5258510;28;20031;-69
2022/07/11 03:26:28;;;;;;;36.28;18.42;;;;;;;13.41;100.00;102393.41;5245122;28;20428;-69
2022/07/11 03:28:58;;;;;;;45.63;21.25;;;;;;;13.42;100.00;102386.16;5248643;28;20029;-69
2022/07/11 03:31:29;;;;;;;36.80;18.13;;;;;;;13.43;100.00;102396.78;5249383;28;20020;-70
2022/07/11 03:33:59;;;;;;;39.30;19.77;;;;;;;13.44;100.00;102387.69;5256225;28;20089;-69
2022/07/11 03:36:30;;;;;;;35.97;19.70;;;;;;;13.45;100.00;102394.81;5254874;28;20032;-69
2022/07/11 03:39:00;;;;;;;30.95;18.17;;;;;;;13.47;100.00;102395.50;5249158;28;20027;-69
2022/07/11 03:41:31;;;;;;;37.55;19.95;;;;;;;13.47;100.00;102383.88;5248950;28;20135;-69
2022/07/11 03:44:01;;;;;;;38.92;21.58;;;;;;;13.47;100.00;102387.41;5249171;28;20082;-70
2022/07/11 03:46:32;;;;;;;35.70;20.60;;;;;;;13.47;100.00;102389.28;5264255;28;20028;-69
2022/07/11 03:49:03;;;;;;;38.45;20.23;;;;;;;13.45;100.00;102394.81;5260762;28;20072;-69
2022/07/11 03:51:33;;;;;;;40.72;20.08;;;;;;;13.42;100.00;102407.72;5250519;28;20112;-69
2022/07/11 03:54:04;;;;;;;33.90;18.08;;;;;;;13.38;100.00;102392.84;5262088;28;20028;-70
2022/07/11 03:56:34;;;;;;;38.45;18.75;;;;;;;13.32;100.00;102396.97;5248933;28;20021;-70
2022/07/11 03:59:05;;;;;;;30.42;16.85;;;;;;;13.26;100.00;102392.19;5248441;28;20453;-69
2022/07/11 04:01:35;;;;;;;36.42;18.42;;;;;;;13.21;100.00;102395.31;5248816;28;20029;-69
2022/07/11 04:04:08;;;;;;;33.97;19.10;;;;;;;13.18;100.00;102400.94;5234923;28;20032;-69
2022/07/11 04:06:38;;;;;;;35.45;18.83;;;;;;;13.16;100.00;102389.47;5248828;28;20401;-69
2022/07/11 04:09:10;;;;;;;36.17;19.55;;;;;;;13.15;100.00;102392.28;5248541;28;20025;-70
2022/07/11 04:11:40;;;;;;;34.55;18.85;;;;;;;13.11;100.00;102388.22;5259889;28;20024;-69
2022/07/11 04:14:11;;;;;;;35.92;19.42;;;;;;;13.09;100.00;102396.44;5255490;28;20509;-69
2022/07/11 04:16:41;;;;;;;36.67;20.17;;;;;;;13.06;100.00;102385.13;5269537;28;20024;-70
2022/07/11 04:19:12;;;;;;;40.10;21.27;;;;;;;13.05;100.00;102392.34;5269236;28;20111;-70
2022/07/11 04:21:42;;;;;;;46.80;20.63;;;;;;;13.06;100.00;102388.66;5258544;28;20016;-70
2022/07/11 04:24:13;;;;;;;43.17;20.17;;;;;;;13.07;100.00;102403.81;5268894;28;20032;-69
2022/07/11 04:26:43;;;;;;;34.55;18.67;;;;;;;13.09;100.00;102396.44;5269440;28;20031;-69
2022/07/11 04:29:14;;;;;;;35.28;16.80;;;;;;;13.11;100.00;102396.31;5260609;28;20020;-69
2022/07/11 04:31:44;;;;;;;33.17;18.33;;;;;;;13.15;100.00;102389.59;5264194;28;20026;-69
2022/07/11 04:34:15;;;;;;;28.80;16.25;;;;;;;13.17;100.00;102401.94;5259208;28;20501;-69
2022/07/11 04:36:45;;;;;;;32.00;15.70;;;;;;;13.16;100.00;102411.03;5248025;28;20032;-69
2022/07/11 04:39:16;;;;;;;32.28;17.35;;;;;;;13.14;100.00;102396.84;5248107;28;20024;-69
2022/07/11 04:41:46;;;;;;;36.63;16.05;;;;;;;13.13;100.00;102403.22;5266564;28;20024;-70
2022/07/11 04:44:17;;;;;;;35.95;18.85;;;;;;;13.10;100.00;102398.16;5256385;28;20549;-69
2022/07/11 04:46:48;;;;;;;39.03;19.05;;;;;;;13.08;100.00;102404.66;5247538;28;20028;-70
2022/07/11 04:49:18;;;;;;;40.45;19.48;;;;;;;13.08;100.00;102408.19;5247961;28;20026;-69
2022/07/11 04:51:49;;;;;;;44.55;22.35;;;;;;;13.10;100.00;102406.22;5234295;28;20069;-69
2022/07/11 04:54:19;;;;;;;43.75;22.25;;;;;;;13.17;100.00;102404.66;5248357;28;20469;-69
2022/07/11 04:56:50;;;;;;;45.58;23.50;;;;;;;13.24;100.00;102407.63;5254610;28;20028;-69
2022/07/11 04:59:20;;;;;;;44.00;23.73;;;;;;;13.32;100.00;102406.91;5261584;28;20020;-69
2022/07/11 05:01:50;;;;;;;46.13;22.92;;;;;;;13.40;100.00;102410.59;5255783;28;20119;-69
2022/07/11 05:04:21;;;;;;;50.65;22.85;;;;;;;13.46;100.00;102410.00;5236751;28;20493;-70
2022/07/11 05:06:52;;;;;;;36.95;21.40;;;;;;;13.53;100.00;102418.34;5246604;28;20177;-70
2022/07/11 05:09:22;;;;;;;36.53;20.23;;;;;;;13.58;100.00;102407.94;5247982;28;20420;-69
2022/07/11 05:11:53;;;;;;;39.38;20.80;;;;;;;13.62;100.00;102406.66;5247259;28;20497;-70
2022/07/11 05:14:23;;;;;;;42.17;22.02;;;;;;;13.69;100.00;102410.44;5247134;28;20424;-69
2022/07/11 05:16:54;;;;;;;40.60;22.02;;;;;;;13.78;100.00;102415.97;5260780;28;20032;-70
2022/07/11 05:19:24;;;;;;;48.92;23.27;;;;;;;13.85;100.00;102415.19;5254298;28;20461;-69
2022/07/11 05:21:55;;;;;;;49.78;23.58;;;;;;;13.95;100.00;102416.00;5246986;28;20145;-70
2022/07/11 05:24:25;;;;;;;38.40;20.52;;;;;;;14.08;100.00;102423.75;5246728;28;20033;-70
2022/07/11 05:26:56;;;;;;;42.63;23.13;;;;;;;14.22;100.00;102434.03;5260872;28;20032;-71
2022/07/11 05:29:27;;;;;;;40.70;21.48;;;;;;;14.36;100.00;102434.53;5247096;28;20413;-70
2022/07/11 05:31:57;;;;;;;44.35;23.83;;;;;;;14.55;100.00;102442.50;5251809;28;20032;-69
2022/07/11 05:34:28;;;;;;;47.22;22.88;;;;;;;14.76;100.00;102450.31;5268392;28;20069;-69
2022/07/11 05:36:59;;;;;;;37.58;20.67;;;;;;;14.93;100.00;102448.59;5261126;28;21039;-70
2022/07/11 05:39:29;;;;;;;44.33;21.48;;;;;;;15.13;100.00;102444.72;5260268;28;20028;-70
2022/07/11 05:42:00;;;;;;;48.78;24.48;;;;;;;15.26;100.00;102442.47;5254477;28;20058;-70
2022/07/11 05:44:30;;;;;;;37.58;20.42;;;;;;;15.38;100.00;102442.19;5252349;28;20087;-70
2022/07/11 05:47:02;;;;;;;36.58;20.13;;;;;;;15.55;100.00;102439.41;5246787;28;20025;-70
2022/07/11 05:49:33;;;;;;;39.08;19.08;;;;;;;15.66;100.00;102441.03;5259773;28;20500;-70
2022/07/11 05:52:04;;;;;;;34.50;19.38;;;;;;;15.76;100.00;102440.88;5246313;28;20017;-69
2022/07/11 05:54:35;;;;;;;44.47;21.85;;;;;;;15.86;100.00;102438.91;5259985;28;20020;-70
2022/07/11 05:57:05;;;;;;;37.22;18.50;;;;;;;16.02;100.00;102447.13;5246391;28;20029;-69
2022/07/11 05:59:37;;;;;;;41.78;20.52;;;;;;;16.16;100.00;102447.50;5266007;28;20308;-70
2022/07/11 06:02:07;;;;;;;34.42;20.25;;;;;;;16.35;100.00;102444.50;5253785;28;20032;-70
2022/07/11 06:04:38;;;;;;;33.58;18.20;;;;;;;16.67;100.00;102446.44;5239272;28;20028;-70
2022/07/11 06:07:09;;;;;;;41.80;18.33;;;;;;;17.47;100.00;102443.88;5253228;28;20099;-70
2022/07/11 06:09:39;;;;;;;27.95;14.48;;;;;;;18.31;100.00;102438.81;5254465;28;20027;-70
2022/07/11 06:12:09;;;;;;;25.65;14.20;;;;;;;19.35;100.00;102435.47;5265562;28;20024;-70
2022/07/11 06:14:40;;;;;;;24.08;13.23;;;;;;;20.23;100.00;102438.34;5245848;28;20032;-71
2022/07/11 06:17:12;;;;;;;22.30;12.57;;;;;;;20.85;100.00;102435.91;5249096;28;20019;-70
2022/07/11 06:19:42;;;;;;;22.88;11.73;;;;;;;21.53;100.00;102433.50;5256441;28;20024;-70
2022/07/11 06:22:14;;;;;;;19.02;11.35;;;;;;;21.92;100.00;102429.28;5250083;28;20036;-70
2022/07/11 06:24:44;;;;;;;17.27;10.60;;;;;;;22.19;100.00;102433.88;5266518;28;20109;-70
2022/07/11 06:27:15;;;;;;;19.02;11.73;;;;;;;22.35;100.00;102431.81;5247192;28;20056;-70
2022/07/11 06:29:45;;;;;;;25.95;12.43;;;;;;;22.62;100.00;102440.91;5246148;28;20024;-70
2022/07/11 06:32:16;;;;;;;22.20;11.88;;;;;;;22.29;100.00;102436.22;5245692;28;20098;-70
2022/07/11 06:34:46;;;;;;;17.83;10.82;;;;;;;22.25;100.00;102439.56;5245684;28;20028;-70
2022/07/11 06:37:17;;;;;;;21.00;11.88;;;;;;;22.39;100.00;102442.13;5253953;28;20081;-70
2022/07/11 06:39:47;;;;;;;18.02;12.68;;;;;;;22.32;100.00;102441.25;5251239;28;20024;-70
2022/07/11 06:42:18;;;;;;;21.15;12.57;;;;;;;22.28;100.00;102439.97;5245640;28;20036;-70
2022/07/11 06:44:48;;;;;;;22.35;13.10;;;;;;;21.75;100.00;102444.34;5249075;28;20546;-70
2022/07/11 06:47:19;;;;;;;29.40;13.07;;;;;;;21.14;100.00;102447.69;5255789;28;20043;-70
2022/07/11 06:49:49;;;;;;;19.70;12.10;;;;;;;20.66;100.00;102445.56;5258976;28;20021;-70
2022/07/11 06:52:20;;;;;;;22.38;13.88;;;;;;;20.23;100.00;102449.25;5245759;28;20538;-70
2022/07/11 06:54:50;;;;;;;29.63;14.40;;;;;;;19.91;100.00;102454.94;5264750;28;20043;-70
2022/07/11 06:57:21;;;;;;;23.85;13.60;;;;;;;19.59;100.00;102453.44;5248098;28;20048;-70
2022/07/11 06:59:51;;;;;;;27.17;13.82;;;;;;;19.46;100.00;102446.91;5259060;28;20381;-70
2022/07/11 07:02:27;;;;;;;23.90;13.15;;;;;;;19.42;100.00;102455.44;5256911;28;20031;-70
2022/07/11 07:04:58;;;;;;;26.10;13.43;;;;;;;19.73;100.00;102454.50;5246009;28;20042;-71
2022/07/11 07:07:29;;;;;;;26.80;12.82;;;;;;;20.17;100.00;102459.88;5245499;28;20028;-70
2022/07/11 07:09:59;;;;;;;19.55;11.00;;;;;;;21.16;100.00;102457.34;5245543;28;20017;-70
2022/07/11 07:12:30;;;;;;;19.17;10.55;;;;;;;21.93;100.00;102450.94;5249616;28;20142;-70
2022/07/11 07:15:00;;;;;;;16.73;10.30;;;;;;;22.63;100.00;102456.25;5254280;28;20029;-70
2022/07/11 07:17:31;;;;;;;22.98;9.93;;;;;;;22.53;100.00;102445.72;5245223;28;20477;-70
2022/07/11 07:20:03;;;;;;;14.30;9.30;;;;;;;22.08;100.00;102447.22;5251380;28;20032;-70
2022/07/11 07:22:35;;;;;;;16.48;9.90;;;;;;;21.77;100.00;102443.09;5255814;28;20025;-70
2022/07/11 07:25:07;;;;;;;16.15;10.35;;;;;;;21.56;100.00;102444.03;5258115;28;20024;-71
2022/07/11 07:27:37;;;;;;;17.88;10.80;;;;;;;21.51;100.00;102441.06;5254045;28;20380;-70
2022/07/11 07:30:08;;;;;;;14.13;8.90;;;;;;;21.80;100.00;102442.69;5266048;28;20024;-70
2022/07/11 07:32:39;;;;;;;15.68;9.27;;;;;;;22.28;100.00;102445.44;5255914;28;20512;-71
2022/07/11 07:35:09;;;;;;;16.33;8.00;;;;;;;22.74;100.00;102450.16;5249113;28;20020;-70
2022/07/11 07:37:40;;;;;;;15.85;8.27;;;;;;;22.56;100.00;102442.59;5265792;28;20080;-70
2022/07/11 07:40:10;;;;;;;13.93;8.25;;;;;;;22.45;100.00;102430.34;5260802;28;20025;-70
2022/07/11 07:42:41;;;;;;;12.88;8.38;;;;;;;22.19;100.00;102435.75;5257839;28;20031;-70
2022/07/11 07:45:11;;;;;;;13.23;9.18;;;;;;;21.69;100.00;102421.44;5265818;28;20508;-71
2022/07/11 07:47:42;;;;;;;14.80;9.65;;;;;;;21.70;100.00;102425.84;5254105;28;20036;-70
2022/07/11 07:50:13;;;;;;;17.85;11.23;;;;;;;21.58;100.00;102421.97;5244784;28;20063;-70
2022/07/11 07:52:43;;;;;;;18.83;11.07;;;;;;;21.50;100.00;102417.53;5244865;28;20082;-70
2022/07/11 07:55:14;;;;;;;17.92;11.75;;;;;;;21.30;100.00;102424.72;5244599;28;20074;-71
2022/07/11 07:57:44;;;;;;;19.85;12.02;;;;;;;21.15;100.00;102417.47;5261469;28;20089;-70
2022/07/11 08:03:05;;;;;;;19.10;12.40;;;;;;;21.26;100.00;102437.91;5245342;28;20478;-71
2022/07/11 08:05:36;;;;;;;17.08;10.38;;;;;;;21.67;100.00;102439.88;5244654;28;20382;-70
2022/07/11 08:08:07;;;;;;;14.55;9.25;;;;;;;22.40;100.00;102448.44;5244883;28;20021;-70
2022/07/11 08:10:37;;;;;;;15.88;9.30;;;;;;;22.61;100.00;102448.28;5244895;28;20035;-70
2022/07/11 08:13:08;;;;;;;16.10;9.85;;;;;;;22.20;100.00;102449.22;5244719;28;20016;-71
2022/07/11 08:15:38;;;;;;;19.23;12.27;;;;;;;22.02;100.00;102445.31;5248335;28;20111;-70
2022/07/11 08:18:09;;;;;;;19.98;12.70;;;;;;;22.02;100.00;102448.88;5248635;28;20032;-70
2022/07/11 08:20:39;;;;;;;16.50;11.30;;;;;;;22.06;100.00;102443.88;5248629;28;20416;-70
2022/07/11 08:23:10;;;;;;;17.80;11.65;;;;;;;21.96;100.00;102445.09;5248223;28;20421;-70
2022/07/11 08:25:40;;;;;;;14.18;11.25;;;;;;;21.92;100.00;102443.78;5261507;28;20107;-70
2022/07/11 08:28:11;;;;;;;17.48;10.43;;;;;;;22.20;100.00;102446.47;5261651;28;20505;-70
2022/07/11 08:30:41;;;;;;;17.00;10.65;;;;;;;22.03;100.00;102449.72;5248433;28;20033;-70
2022/07/11 08:33:13;;;;;;;13.57;9.88;;;;;;;22.13;100.00;102445.59;5249559;28;20158;-70
2022/07/11 08:35:43;;;;;;;16.75;10.65;;;;;;;21.95;100.00;102443.41;5260120;28;20028;-71
2022/07/11 08:38:14;;;;;;;21.85;12.13;;;;;;;22.52;100.00;102440.47;5250622;28;20046;-70
2022/07/11 08:40:44;;;;;;;13.43;9.90;;;;;;;22.38;100.00;102454.09;5258774;28;20033;-70
2022/07/11 08:43:16;;;;;;;15.60;11.48;;;;;;;22.15;100.00;102439.94;5247871;28;20393;-70
2022/07/11 08:45:46;;;;;;;15.68;11.50;;;;;;;22.25;100.00;102437.66;5248011;28;20024;-70
2022/07/11 08:48:19;;;;;;;14.55;10.60;;;;;;;22.49;100.00;102434.38;5247871;28;20016;-70
2022/07/11 08:50:50;;;;;;;15.80;10.95;;;;;;;22.73;100.00;102437.53;5247847;28;20028;-70
2022/07/11 08:53:21;;;;;;;21.67;10.27;;;;;;;22.75;100.00;102439.03;5268426;28;20393;-70
2022/07/11 08:55:52;;;;;;;12.70;9.52;;;;;;;22.70;100.00;102443.44;5263810;28;20032;-70
2022/07/11 08:58:23;;;;;;;18.90;11.77;;;;;;;22.62;100.00;102449.09;5268765;28;20120;-70
2022/07/11 09:00:54;;;;;;;14.75;10.38;;;;;;;22.66;100.00;102442.19;5268599;28;20020;-70
2022/07/11 09:03:25;;;;;;;14.73;11.18;;;;;;;22.67;100.00;102443.84;5248138;28;20029;-71
2022/07/11 09:05:56;;;;;;;15.18;10.60;;;;;;;23.69;100.00;102442.59;5248512;28;20051;-70
2022/07/11 09:08:28;;;;;;;16.15;9.82;;;;;;;24.63;100.00;102452.09;5256722;28;20031;-70
2022/07/11 09:10:59;;;;;;;11.77;9.88;;;;;;;24.93;100.00;102455.06;5253412;28;20024;-70
2022/07/11 09:13:30;;;;;;;13.57;10.85;;;;;;;24.84;100.00;102451.72;5268038;28;20409;-71
2022/07/11 09:16:03;;;;;;;17.73;11.95;;;;;;;24.56;100.00;102443.09;5254519;28;20016;-70
2022/07/11 09:18:35;;;;;;;19.20;13.05;;;;;;;24.50;100.00;102442.06;5268233;28;20063;-70
2022/07/11 09:26:52;;;;;;;17.75;11.95;;;;;;;24.11;100.00;102437.59;5260112;28;20021;-71
2022/07/11 09:29:24;;;;;;;20.67;13.10;;;;;;;24.22;100.00;102436.91;5247170;28;20383;-71
2022/07/11 09:31:54;;;;;;;17.15;12.57;;;;;;;24.52;100.00;102446.25;5251571;28;20550;-70
2022/07/11 09:34:27;;;;;;;19.75;13.43;;;;;;;24.54;100.00;102441.38;5268102;28;20347;-71
2022/07/11 09:36:57;;;;;;;17.48;11.88;;;;;;;24.39;100.00;102440.84;5248687;28;20027;-70
2022/07/11 09:39:29;;;;;;;23.15;16.35;;;;;;;24.48;100.00;102436.78;5247051;28;20074;-70
2022/07/11 09:41:59;;;;;;;24.05;16.20;;;;;;;24.83;100.00;102436.34;5247088;28;20080;-70
2022/07/11 09:44:33;;;;;;;23.13;17.42;;;;;;;24.86;100.00;102438.63;5246817;28;20100;-70
2022/07/11 09:47:09;;;;;;;20.75;14.80;;;;;;;24.35;100.00;102436.84;5246550;28;21114;-71
2022/07/11 09:49:40;;;;;;;20.77;14.30;;;;;;;24.47;100.00;102431.53;5246836;28;20290;-70
2022/07/11 09:52:13;;;;;;;18.13;12.98;;;;;;;24.80;100.00;102436.78;5246485;28;20020;-70
2022/07/11 09:55:02;;;;;;;17.83;12.13;;;;;;;25.34;100.00;102431.69;5251683;28;20051;-70
2022/07/11 09:57:36;;;;;;;17.15;11.43;;;;;;;25.48;100.00;102439.56;5247143;28;20028;-70
2022/07/11 10:00:09;;;;;;;19.00;12.38;;;;;;;25.55;100.00;102434.88;5246869;28;20347;-71
2022/07/11 10:02:40;;;;;;;16.60;11.73;;;;;;;25.30;100.00;102439.53;5242855;28;20390;-70
2022/07/11 10:05:11;;;;;;;12.88;9.25;;;;;;;25.23;100.00;102439.59;5246825;28;20028;-70
2022/07/11 10:07:42;;;;;;;16.20;11.57;;;;;;;25.16;100.00;102432.50;5247919;28;20031;-70
2022/07/11 10:10:12;;;;;;;19.08;11.73;;;;;;;25.00;100.00;102442.09;5246830;28;20024;-70
2022/07/11 10:12:46;;;;;;;11.85;8.77;;;;;;;25.02;100.00;102437.25;5246024;28;20028;-70
2022/07/11 10:15:20;;;;;;;15.02;9.77;;;;;;;25.33;100.00;102443.75;5245863;28;20024;-70
2022/07/11 10:18:25;;;;;;;17.52;10.35;;;;;;;25.17;100.00;102439.69;5246230;28;20513;-70
2022/07/11 10:21:06;;;;;;;13.35;9.38;;;;;;;24.97;100.00;102445.31;5239494;28;20379;-71
2022/07/11 10:23:38;;;;;;;13.13;9.10;;;;;;;24.91;100.00;102447.03;5247310;28;20099;-71
2022/07/11 10:26:23;;;;;;;13.07;9.23;;;;;;;24.29;100.00;102451.41;5267026;28;20111;-71
2022/07/11 10:29:01;;;;;;;15.25;9.65;;;;;;;24.14;100.00;102453.59;5247089;28;20382;-71
2022/07/11 10:31:33;;;;;;;13.93;8.43;;;;;;;24.29;100.00;102451.41;5245839;28;20082;-71
2022/07/11 10:34:10;;;;;;;14.10;8.90;;;;;;;24.69;100.00;102460.28;5255010;28;20031;-71
2022/07/11 10:36:42;;;;;;;14.20;8.20;;;;;;;24.76;100.00;102457.50;5252911;28;20111;-70
2022/07/11 10:39:15;;;;;;;14.48;9.27;;;;;;;24.93;100.00;102460.53;5256241;28;20025;-71
2022/07/11 10:41:45;;;;;;;13.43;8.90;;;;;;;24.52;100.00;102459.13;5245790;28;20021;-70
2022/07/11 10:44:16;;;;;;;11.43;8.13;;;;;;;24.34;100.00;102451.59;5245765;28;20023;-70
2022/07/11 10:46:47;;;;;;;12.23;8.43;;;;;;;24.84;100.00;102459.97;5245663;28;20028;-70
2022/07/11 10:49:31;;;;;;;12.43;9.05;;;;;;;24.98;100.00;102463.47;5245436;28;20031;-71
2022/07/11 10:52:06;;;;;;;13.30;8.82;;;;;;;25.01;100.00;102463.03;5253548;28;20103;-70
2022/07/11 10:55:03;;;;;;;14.95;9.10;;;;;;;24.30;100.00;102458.59;5249200;28;20056;-70
2022/07/11 10:58:10;;;;;;;15.68;8.70;;;;;;;24.21;100.00;102455.25;5258761;28;20374;-71
2022/07/11 11:00:41;;;;;;;14.27;9.65;;;;;;;24.50;100.00;102464.84;5245505;28;20107;-70
2022/07/11 11:03:11;;;;;;;12.77;8.48;;;;;;;24.90;100.00;102459.09;5237236;28;20103;-70
2022/07/11 11:05:47;;;;;;;12.80;8.77;;;;;;;25.19;100.00;102460.34;5256327;28;20085;-70
2022/07/11 11:08:36;;;;;;;9.90;7.05;;;;;;;25.34;100.00;102461.91;5254689;28;20028;-70
2022/07/11 11:11:34;;;;;;;12.10;8.68;;;;;;;25.13;100.00;102454.91;5251788;28;20439;-70
2022/07/11 11:14:15;;;;;;;11.00;8.10;;;;;;;25.11;100.00;102460.66;5262123;28;20063;-71
2022/07/11 11:16:47;;;;;;;11.30;8.43;;;;;;;24.92;100.00;102448.72;5245235;28;20105;-70
2022/07/11 11:19:48;;;;;;;11.88;8.60;;;;;;;25.13;100.00;102454.91;5251552;28;20078;-71
2022/07/11 11:22:21;;;;;;;13.68;9.55;;;;;;;25.34;100.00;102451.75;5244778;28;20039;-70
2022/07/11 11:24:54;;;;;;;14.13;9.60;;;;;;;25.83;100.00;102439.00;5244882;28;20029;-70
2022/07/11 11:27:26;;;;;;;12.27;8.98;;;;;;;26.08;100.00;102441.66;5231875;28;20028;-70
2022/07/11 11:29:57;;;;;;;14.25;9.23;;;;;;;25.76;100.00;102439.09;5260349;28;20032;-71
2022/07/11 11:32:30;;;;;;;12.27;8.95;;;;;;;25.78;100.00;102444.34;5257766;28;20097;-71